createdAt,value
2019-02-23T00:00:22.203Z,100575.71
2019-02-23T00:02:57.082Z,100576.34
2019-02-23T00:05:29.958Z,100576.70
2019-02-23T00:08:03.592Z,100578.48
2019-02-23T00:10:38.406Z,100581.03
2019-02-23T00:13:10.929Z,100579.16
2019-02-23T00:15:46.153Z,100584.09
2019-02-23T00:18:18.656Z,100579.90
2019-02-23T00:20:51.342Z,100585.22
2019-02-23T00:23:25.663Z,100587.27
2019-02-23T00:25:58.062Z,100585.19
2019-02-23T00:28:32.436Z,100588.31
2019-02-23T00:31:05.691Z,100585.85
2019-02-23T00:33:40.380Z,100589.18
2019-02-23T00:36:13.464Z,100591.50
2019-02-23T00:38:47.124Z,100592.63
2019-02-23T00:41:21.648Z,100588.34
2019-02-23T00:43:59.321Z,100589.08
2019-02-23T00:46:32.443Z,100596.63
2019-02-23T00:49:04.820Z,100601.78
2019-02-23T00:51:37.724Z,100607.02
2019-02-23T00:54:10.807Z,100609.35
2019-02-23T00:56:43.577Z,100620.80
2019-02-23T00:59:16.676Z,100622.61
2019-02-23T01:01:51.333Z,100621.27
2019-02-23T01:04:28.641Z,100614.62
2019-02-23T01:07:02.804Z,100620.72
2019-02-23T01:09:36.420Z,100631.47
2019-02-23T01:12:08.539Z,100636.83
2019-02-23T01:14:42.039Z,100635.45
2019-02-23T01:17:15.656Z,100635.27
2019-02-23T01:19:48.862Z,100636.59
2019-02-23T01:22:21.718Z,100638.46
2019-02-23T01:24:54.403Z,100632.54
2019-02-23T01:27:27.278Z,100622.65
2019-02-23T01:30:01.307Z,100613.39
2019-02-23T01:32:37.170Z,100611.59
2019-02-23T01:35:13.778Z,100611.13
2019-02-23T01:37:46.617Z,100610.78
2019-02-23T01:40:20.419Z,100615.10
2019-02-23T01:42:53.544Z,100617.92
2019-02-23T01:45:27.102Z,100617.59
2019-02-23T01:48:01.119Z,100618.47
2019-02-23T01:50:33.244Z,100618.96
2019-02-23T01:53:06.502Z,100630.84
2019-02-23T01:55:39.187Z,100629.27
2019-02-23T01:58:12.577Z,100627.09
2019-02-23T02:00:45.051Z,100619.34
2019-02-23T02:03:18.268Z,100622.09
2019-02-23T02:05:49.286Z,100615.27
2019-02-23T02:08:22.088Z,100611.41
2019-02-23T02:10:55.171Z,100612.12
2019-02-23T02:13:28.520Z,100622.66
2019-02-23T02:16:00.900Z,100615.85
2019-02-23T02:18:34.054Z,100627.56
2019-02-23T02:21:07.133Z,100621.97
2019-02-23T02:23:38.835Z,100616.02
2019-02-23T02:26:11.454Z,100620.47
2019-02-23T02:28:45.263Z,100626.59
2019-02-23T02:31:18.413Z,100627.30
2019-02-23T02:34:08.547Z,100638.33
2019-02-23T02:36:41.725Z,100641.02
2019-02-23T02:39:16.030Z,100645.03
2019-02-23T02:41:49.370Z,100657.22
2019-02-23T02:44:21.939Z,100670.05
2019-02-23T02:46:54.935Z,100661.83
2019-02-23T02:49:27.725Z,100658.58
2019-02-23T02:52:00.446Z,100653.37
2019-02-23T02:54:33.308Z,100646.04
2019-02-23T02:57:05.862Z,100649.50
2019-02-23T02:59:39.030Z,100659.74
2019-02-23T03:02:11.488Z,100658.58
2019-02-23T03:04:44.192Z,100661.79
2019-02-23T03:07:16.931Z,100657.09
2019-02-23T03:09:49.849Z,100645.34
2019-02-23T03:12:23.146Z,100637.42
2019-02-23T03:14:55.140Z,100642.20
2019-02-23T03:17:27.510Z,100648.84
2019-02-23T03:20:00.553Z,100650.70
2019-02-23T03:22:33.038Z,100643.03
2019-02-23T03:25:05.516Z,100639.03
2019-02-23T03:27:38.181Z,100642.25
2019-02-23T03:30:12.245Z,100638.08
2019-02-23T03:32:45.329Z,100643.79
2019-02-23T03:35:17.125Z,100652.57
2019-02-23T03:37:49.912Z,100653.45
2019-02-23T03:40:22.116Z,100650.13
2019-02-23T03:42:55.488Z,100650.39
2019-02-23T03:45:28.025Z,100642.99
2019-02-23T03:48:01.907Z,100640.55
2019-02-23T03:50:34.358Z,100659.23
2019-02-23T03:53:07.012Z,100646.39
2019-02-23T03:55:39.395Z,100643.47
2019-02-23T03:58:13.027Z,100639.35
2019-02-23T04:00:46.282Z,100635.97
2019-02-23T04:03:19.020Z,100626.20
2019-02-23T04:05:52.424Z,100617.05
2019-02-23T04:08:24.875Z,100624.38
2019-02-23T04:10:57.911Z,100627.50
2019-02-23T04:13:30.645Z,100641.39
2019-02-23T04:16:04.564Z,100641.81
2019-02-23T04:18:37.578Z,100622.80
2019-02-23T04:21:09.570Z,100614.91
2019-02-23T04:23:42.260Z,100622.18
2019-02-23T04:26:15.337Z,100617.33
2019-02-23T04:28:48.158Z,100612.86
2019-02-23T04:31:21.624Z,100617.20
2019-02-23T04:33:54.863Z,100630.35
2019-02-23T04:36:27.320Z,100619.91
2019-02-23T04:39:01.674Z,100630.16
2019-02-23T04:41:35.324Z,100634.10
2019-02-23T04:44:08.161Z,100636.29
2019-02-23T04:46:40.285Z,100631.08
2019-02-23T04:49:13.372Z,100628.10
2019-02-23T04:51:45.260Z,100629.94
2019-02-23T04:54:17.607Z,100631.22
2019-02-23T04:56:50.164Z,100628.06
2019-02-23T04:59:22.837Z,100620.17
2019-02-23T05:01:55.906Z,100616.41
2019-02-23T05:04:28.683Z,100618.88
2019-02-23T05:07:01.141Z,100620.77
2019-02-23T05:09:34.295Z,100625.84
2019-02-23T05:12:05.573Z,100627.59
2019-02-23T05:14:38.312Z,100623.66
2019-02-23T05:17:11.099Z,100624.16
2019-02-23T05:19:43.841Z,100628.08
2019-02-23T05:22:16.614Z,100631.09
2019-02-23T05:24:49.347Z,100621.52
2019-02-23T05:27:22.075Z,100632.80
2019-02-23T05:29:55.133Z,100632.94
2019-02-23T05:32:27.629Z,100632.99
2019-02-23T05:35:00.774Z,100623.66
2019-02-23T05:37:33.339Z,100621.60
2019-02-23T05:40:06.545Z,100618.31
2019-02-23T05:42:38.024Z,100625.82
2019-02-23T05:45:10.494Z,100627.14
2019-02-23T05:47:43.615Z,100613.22
2019-02-23T05:50:16.141Z,100618.36
2019-02-23T05:52:49.638Z,100622.78
2019-02-23T05:55:22.511Z,100625.82
2019-02-23T05:57:54.949Z,100622.82
2019-02-23T06:00:27.364Z,100619.45
2019-02-23T06:02:59.732Z,100618.61
2019-02-23T06:05:32.902Z,100618.22
2019-02-23T06:08:04.180Z,100614.30
2019-02-23T06:10:36.864Z,100612.99
2019-02-23T06:13:10.249Z,100616.77
2019-02-23T06:15:43.081Z,100625.44
2019-02-23T06:18:15.576Z,100618.83
2019-02-23T06:20:49.350Z,100620.21
2019-02-23T06:23:22.297Z,100631.55
2019-02-23T06:25:55.372Z,100633.03
2019-02-23T06:28:28.497Z,100631.12
2019-02-23T06:31:04.494Z,100634.63
2019-02-23T06:33:37.028Z,100645.40
2019-02-23T06:36:09.498Z,100649.28
2019-02-23T06:38:43.178Z,100652.01
2019-02-23T06:41:16.576Z,100657.78
2019-02-23T06:43:48.671Z,100658.66
2019-02-23T06:46:21.179Z,100644.74
2019-02-23T06:48:54.227Z,100637.31
2019-02-23T06:51:27.646Z,100634.55
2019-02-23T06:54:00.426Z,100633.91
2019-02-23T06:56:34.536Z,100642.93
2019-02-23T06:59:07.984Z,100640.39
2019-02-23T07:01:41.305Z,100648.03
2019-02-23T07:04:14.167Z,100660.57
2019-02-23T07:06:48.119Z,100658.27
2019-02-23T07:09:21.170Z,100658.66
2019-02-23T07:11:52.856Z,100654.70
2019-02-23T07:14:24.920Z,100663.17
2019-02-23T07:16:58.699Z,100653.14
2019-02-23T07:19:31.772Z,100649.73
2019-02-23T07:22:03.108Z,100641.55
2019-02-23T07:24:36.298Z,100649.91
2019-02-23T07:27:09.839Z,100654.57
2019-02-23T07:29:41.986Z,100661.40
2019-02-23T07:32:14.421Z,100663.02
2019-02-23T07:34:47.417Z,100664.88
2019-02-23T07:37:20.243Z,100660.34
2019-02-23T07:39:52.470Z,100647.36
2019-02-23T07:42:25.188Z,100651.56
2019-02-23T07:44:57.650Z,100653.64
2019-02-23T07:47:30.279Z,100662.77
2019-02-23T07:50:03.764Z,100662.73
2019-02-23T07:52:36.583Z,100671.66
2019-02-23T07:55:08.840Z,100674.13
2019-02-23T07:57:41.534Z,100663.55
2019-02-23T08:00:15.050Z,100666.39
2019-02-23T08:02:48.144Z,100676.09
2019-02-23T08:05:20.801Z,100662.14
2019-02-23T08:07:54.653Z,100652.33
2019-02-23T08:10:27.180Z,100655.75
2019-02-23T08:13:00.024Z,100659.84
2019-02-23T08:15:33.319Z,100662.71
2019-02-23T08:18:05.427Z,100662.71
2019-02-23T08:20:37.427Z,100659.30
2019-02-23T08:23:10.714Z,100662.33
2019-02-23T08:25:41.695Z,100667.21
2019-02-23T08:28:14.652Z,100674.36
2019-02-23T08:30:46.043Z,100681.64
2019-02-23T08:33:18.944Z,100690.83
2019-02-23T08:35:51.052Z,100691.53
2019-02-23T08:38:23.686Z,100694.69
2019-02-23T08:40:56.797Z,100700.25
2019-02-23T08:43:29.274Z,100702.70
2019-02-23T08:46:02.265Z,100704.13
2019-02-23T08:48:36.021Z,100723.22
2019-02-23T08:51:08.505Z,100725.98
2019-02-23T08:53:41.943Z,100712.97
2019-02-23T08:56:14.463Z,100699.62
2019-02-23T08:58:47.065Z,100690.23
2019-02-23T09:01:20.187Z,100685.36
2019-02-23T09:03:53.005Z,100669.19
2019-02-23T09:06:26.203Z,100673.16
2019-02-23T09:08:59.852Z,100673.98
2019-02-23T09:11:35.885Z,100676.12
2019-02-23T09:14:08.468Z,100678.14
2019-02-23T09:16:41.846Z,100682.24
2019-02-23T09:19:14.256Z,100684.78
2019-02-23T09:21:47.939Z,100687.70
2019-02-23T09:24:20.405Z,100694.48
2019-02-23T09:26:53.620Z,100705.98
2019-02-23T09:29:25.869Z,100689.66
2019-02-23T09:31:58.777Z,100684.66
2019-02-23T09:34:33.138Z,100691.53
2019-02-23T09:37:06.735Z,100691.53
2019-02-23T09:39:39.161Z,100703.83
2019-02-23T09:42:12.637Z,100708.84
2019-02-23T09:44:46.012Z,100712.35
2019-02-23T09:47:18.854Z,100710.54
2019-02-23T09:49:52.395Z,100719.52
2019-02-23T09:52:24.845Z,100733.02
2019-02-23T09:54:57.932Z,100734.48
2019-02-23T09:57:30.538Z,100730.98
2019-02-23T10:00:03.676Z,100732.88
2019-02-23T10:02:36.514Z,100724.17
2019-02-23T10:05:09.771Z,100710.70
2019-02-23T10:07:41.190Z,100698.38
2019-02-23T10:10:13.592Z,100706.28
2019-02-23T10:12:46.041Z,100708.25
2019-02-23T10:15:19.178Z,100700.73
2019-02-23T10:17:52.617Z,100700.31
2019-02-23T10:20:25.510Z,100702.13
2019-02-23T10:22:58.986Z,100690.28
2019-02-23T10:25:31.657Z,100680.02
2019-02-23T10:28:04.335Z,100661.97
2019-02-23T10:30:37.138Z,100666.71
2019-02-23T10:33:11.021Z,100661.67
2019-02-23T10:35:43.965Z,100658.33
2019-02-23T10:38:17.333Z,100660.12
2019-02-23T10:40:51.312Z,100667.00
2019-02-23T10:43:24.590Z,100660.87
2019-02-23T10:45:58.055Z,100670.89
2019-02-23T10:48:31.628Z,100670.34
2019-02-23T10:51:03.576Z,100674.95
2019-02-23T10:53:37.569Z,100663.70
2019-02-23T10:56:10.876Z,100653.32
2019-02-23T10:58:43.022Z,100654.64
2019-02-23T11:01:16.351Z,100648.20
2019-02-23T11:03:50.414Z,100642.45
2019-02-23T11:06:24.249Z,100647.08
2019-02-23T11:08:57.597Z,100643.89
2019-02-23T11:11:30.075Z,100645.48
2019-02-23T11:14:04.205Z,100657.92
2019-02-23T11:16:37.697Z,100648.94
2019-02-23T11:19:09.498Z,100644.88
2019-02-23T11:21:41.957Z,100644.28
2019-02-23T11:24:18.314Z,100636.94
2019-02-23T11:26:51.576Z,100630.87
2019-02-23T11:29:24.685Z,100618.17
2019-02-23T11:31:57.099Z,100615.51
2019-02-23T11:34:30.892Z,100619.50
2019-02-23T11:37:03.869Z,100612.14
2019-02-23T11:39:37.011Z,100615.34
2019-02-23T11:42:08.766Z,100596.56
2019-02-23T11:44:42.277Z,100594.56
2019-02-23T11:47:15.660Z,100591.22
2019-02-23T11:49:47.466Z,100595.52
2019-02-23T11:52:22.043Z,100594.52
2019-02-23T11:54:54.820Z,100586.91
2019-02-23T11:57:28.707Z,100579.91
2019-02-23T12:00:02.470Z,100571.73
2019-02-23T12:02:35.129Z,100573.70
2019-02-23T12:05:08.148Z,100565.66
2019-02-23T12:07:40.527Z,100565.09
2019-02-23T12:10:13.777Z,100561.25
2019-02-23T12:12:47.443Z,100553.97
2019-02-23T12:15:20.201Z,100545.33
2019-02-23T12:17:53.036Z,100541.95
2019-02-23T12:20:26.786Z,100539.48
2019-02-23T12:22:59.929Z,100534.45
2019-02-23T12:25:33.377Z,100534.73
2019-02-23T12:28:06.411Z,100525.30
2019-02-23T12:30:40.088Z,100522.45
2019-02-23T12:33:13.521Z,100524.32
2019-02-23T12:35:46.914Z,100514.97
2019-02-23T12:38:19.106Z,100500.59
2019-02-23T12:40:52.105Z,100499.03
2019-02-23T12:43:25.251Z,100495.42
2019-02-23T12:45:58.701Z,100492.97
2019-02-23T12:48:32.416Z,100501.39
2019-02-23T12:51:05.379Z,100495.35
2019-02-23T12:53:38.685Z,100498.97
2019-02-23T12:56:11.788Z,100498.20
2019-02-23T12:58:44.503Z,100487.47
2019-02-23T13:01:18.057Z,100479.69
2019-02-23T13:03:51.464Z,100481.42
2019-02-23T13:06:22.798Z,100486.77
2019-02-23T13:09:19.044Z,100481.41
2019-02-23T13:12:01.063Z,100475.31
2019-02-23T13:14:47.540Z,100475.86
2019-02-23T13:17:58.074Z,100465.94
2019-02-23T13:20:54.819Z,100462.11
2019-02-23T13:24:28.753Z,100460.84
2019-02-23T13:27:59.831Z,100456.73
2019-02-23T13:31:05.516Z,100455.90
2019-02-23T13:34:50.541Z,100463.77
2019-02-23T13:37:58.743Z,100452.58
2019-02-23T13:41:31.707Z,100446.54
2019-02-23T13:44:40.152Z,100453.55
2019-02-23T13:48:21.246Z,100448.23
2019-02-23T13:51:59.454Z,100441.30
2019-02-23T13:55:46.823Z,100443.79
2019-02-23T13:58:37.164Z,100443.83
2019-02-23T14:02:04.821Z,100442.08
2019-02-23T14:05:17.228Z,100437.77
2019-02-23T14:08:57.681Z,100433.89
2019-02-23T14:12:18.924Z,100439.06
2019-02-23T14:15:36.640Z,100434.52
2019-02-23T14:18:57.351Z,100441.64
2019-02-23T14:22:19.804Z,100434.04
2019-02-23T14:25:56.972Z,100431.70
2019-02-23T14:28:52.725Z,100441.82
2019-02-23T14:32:16.586Z,100440.30
2019-02-23T14:36:04.940Z,100434.95
2019-02-23T14:39:24.491Z,100426.16
2019-02-23T14:42:52.161Z,100428.40
2019-02-23T14:46:28.976Z,100428.50
2019-02-23T14:50:03.795Z,100426.52
2019-02-23T14:53:22.245Z,100423.37
2019-02-23T14:56:55.315Z,100427.45
2019-02-23T15:00:15.334Z,100431.42
2019-02-23T15:03:55.354Z,100425.16
2019-02-23T15:07:19.704Z,100417.81
2019-02-23T15:11:01.217Z,100428.80
2019-02-23T15:14:49.999Z,100430.38
2019-02-23T15:18:02.502Z,100426.02
2019-02-23T15:21:14.251Z,100423.84
2019-02-23T15:28:37.648Z,100429.78
2019-02-23T15:31:54.146Z,100429.85
2019-02-23T15:35:10.533Z,100426.39
2019-02-23T15:38:34.257Z,100433.53
2019-02-23T15:42:09.489Z,100430.96
2019-02-23T15:45:24.742Z,100431.45
2019-02-23T15:48:38.528Z,100425.94
2019-02-23T15:51:13.758Z,100425.75
2019-02-23T15:53:47.598Z,100422.89
2019-02-23T15:56:20.846Z,100430.02
2019-02-23T15:58:53.223Z,100425.66
2019-02-23T16:01:26.280Z,100429.51
2019-02-23T16:03:59.161Z,100428.15
2019-02-23T16:06:31.808Z,100436.41
2019-02-23T16:09:05.070Z,100438.13
2019-02-23T16:11:37.919Z,100438.80
2019-02-23T16:14:10.416Z,100442.09
2019-02-23T16:16:43.554Z,100440.27
2019-02-23T16:19:16.395Z,100444.98
2019-02-23T16:21:52.729Z,100443.58
2019-02-23T16:24:24.147Z,100446.20
2019-02-23T16:26:57.151Z,100447.30
2019-02-23T16:29:30.218Z,100444.23
2019-02-23T16:32:02.881Z,100454.88
2019-02-23T16:34:35.721Z,100452.80
2019-02-23T16:37:08.117Z,100455.67
2019-02-23T16:39:41.582Z,100460.45
2019-02-23T16:42:15.153Z,100451.59
2019-02-23T16:44:49.705Z,100460.02
2019-02-23T16:47:23.127Z,100464.94
2019-02-23T16:49:56.632Z,100471.29
2019-02-23T16:52:30.032Z,100468.41
2019-02-23T16:55:03.845Z,100476.38
2019-02-23T16:57:37.170Z,100487.58
2019-02-23T17:00:10.289Z,100489.30
2019-02-23T17:02:42.812Z,100488.22
2019-02-23T17:05:15.864Z,100485.23
2019-02-23T17:07:49.360Z,100489.19
2019-02-23T17:10:22.742Z,100489.33
2019-02-23T17:12:55.470Z,100495.92
2019-02-23T17:15:28.506Z,100497.87
2019-02-23T17:18:01.574Z,100501.81
2019-02-23T17:20:34.100Z,100502.56
2019-02-23T17:23:08.207Z,100501.80
2019-02-23T17:25:42.153Z,100498.67
2019-02-23T17:28:15.999Z,100505.97
2019-02-23T17:30:49.451Z,100498.89
2019-02-23T17:33:22.275Z,100510.97
2019-02-23T17:35:55.664Z,100515.87
2019-02-23T17:38:29.072Z,100519.39
2019-02-23T17:41:02.005Z,100519.31
2019-02-23T17:43:35.034Z,100530.70
2019-02-23T17:46:08.805Z,100528.19
2019-02-23T17:48:42.889Z,100522.94
2019-02-23T17:51:16.222Z,100524.97
2019-02-23T17:53:50.020Z,100520.52
2019-02-23T17:56:23.470Z,100519.06
2019-02-23T17:58:56.351Z,100518.17
2019-02-23T18:01:31.257Z,100518.82
2019-02-23T18:04:04.353Z,100506.77
2019-02-23T18:06:37.699Z,100509.94
2019-02-23T18:09:11.167Z,100503.82
2019-02-23T18:11:44.253Z,100503.94
2019-02-23T18:14:15.749Z,100505.93
2019-02-23T18:16:48.272Z,100501.22
2019-02-23T18:19:21.015Z,100503.62
2019-02-23T18:21:54.464Z,100501.97
2019-02-23T18:24:28.201Z,100503.77
2019-02-23T18:27:01.559Z,100497.90
2019-02-23T18:29:33.933Z,100489.98
2019-02-23T18:32:06.443Z,100481.64
2019-02-23T18:34:38.968Z,100485.35
2019-02-23T18:37:12.376Z,100481.53
2019-02-23T18:40:03.149Z,100482.15
2019-02-23T18:42:36.448Z,100483.41
2019-02-23T18:45:09.389Z,100480.64
2019-02-23T18:47:43.286Z,100481.53
2019-02-23T18:50:16.743Z,100481.05
2019-02-23T18:52:50.233Z,100480.67
2019-02-23T18:55:46.699Z,100492.24
2019-02-23T18:58:20.579Z,100493.16
2019-02-23T19:00:53.985Z,100483.89
2019-02-23T19:03:26.854Z,100485.23
2019-02-23T19:05:59.622Z,100482.09
2019-02-23T19:08:32.561Z,100482.73
2019-02-23T19:11:05.108Z,100478.10
2019-02-23T19:13:38.970Z,100479.81
2019-02-23T19:16:13.488Z,100482.46
2019-02-23T19:18:46.334Z,100488.00
2019-02-23T19:21:19.216Z,100484.15
2019-02-23T19:23:52.877Z,100491.23
2019-02-23T19:26:27.002Z,100486.92
2019-02-23T19:29:00.179Z,100487.28
2019-02-23T19:31:33.580Z,100490.91
2019-02-23T19:34:04.664Z,100499.77
2019-02-23T19:36:37.437Z,100495.48
2019-02-23T19:39:11.420Z,100495.56
2019-02-23T19:41:43.545Z,100502.09
2019-02-23T19:44:16.533Z,100499.94
2019-02-23T19:46:59.073Z,100508.17
2019-02-23T19:49:31.876Z,100508.11
2019-02-23T19:52:05.271Z,100512.39
2019-02-23T19:54:38.403Z,100514.53
2019-02-23T19:57:11.646Z,100511.63
2019-02-23T19:59:44.528Z,100512.22
2019-02-23T20:02:17.773Z,100515.88
2019-02-23T20:04:50.883Z,100516.08
2019-02-23T20:07:23.717Z,100523.60
2019-02-23T20:09:56.823Z,100521.62
2019-02-23T20:12:28.280Z,100519.66
2019-02-23T20:15:01.051Z,100513.56
2019-02-23T20:17:33.804Z,100519.09
2019-02-23T20:20:07.044Z,100519.84
2019-02-23T20:22:38.480Z,100525.19
2019-02-23T20:25:11.361Z,100530.55
2019-02-23T20:27:42.731Z,100530.38
2019-02-23T20:30:15.354Z,100522.86
2019-02-23T20:32:49.087Z,100523.30
2019-02-23T20:35:21.291Z,100515.61
2019-02-23T20:37:55.056Z,100519.02
2019-02-23T20:40:28.031Z,100524.69
2019-02-23T20:42:59.917Z,100522.88
2019-02-23T20:45:32.649Z,100517.02
2019-02-23T20:48:05.421Z,100520.59
2019-02-23T20:50:40.203Z,100512.86
2019-02-23T20:53:13.369Z,100516.78
2019-02-23T20:55:44.699Z,100519.66
2019-02-23T20:58:17.199Z,100526.19
2019-02-23T21:00:50.058Z,100521.81
2019-02-23T21:03:24.142Z,100517.77
2019-02-23T21:05:57.794Z,100513.36
2019-02-23T21:08:30.450Z,100522.32
2019-02-23T21:11:03.238Z,100519.06
2019-02-23T21:13:37.641Z,100511.52
2019-02-23T21:16:10.200Z,100523.30
2019-02-23T21:18:43.417Z,100519.45
2019-02-23T21:21:15.528Z,100520.31
2019-02-23T21:23:48.188Z,100510.12
2019-02-23T21:26:22.916Z,100509.69
2019-02-23T21:28:55.856Z,100513.62
2019-02-23T21:31:28.911Z,100512.88
2019-02-23T21:34:01.960Z,100514.56
2019-02-23T21:36:34.792Z,100514.03
2019-02-23T21:39:09.000Z,100516.89
2019-02-23T21:41:41.956Z,100513.72
2019-02-23T21:44:14.069Z,100514.52
2019-02-23T21:46:46.742Z,100516.96
2019-02-23T21:49:20.712Z,100517.62
2019-02-23T21:51:54.664Z,100517.34
2019-02-23T21:54:28.462Z,100520.41
2019-02-23T21:57:01.289Z,100517.42
2019-02-23T21:59:33.890Z,100514.43
2019-02-23T22:02:08.276Z,100517.62
2019-02-23T22:04:40.832Z,100521.98
2019-02-23T22:07:13.885Z,100520.75
2019-02-23T22:09:46.960Z,100521.61
2019-02-23T22:12:20.306Z,100522.95
2019-02-23T22:14:53.120Z,100519.33
2019-02-23T22:17:28.968Z,100516.14
2019-02-23T22:20:01.495Z,100523.06
2019-02-23T22:22:33.879Z,100524.91
2019-02-23T22:25:06.817Z,100519.25
2019-02-23T22:27:42.872Z,100524.89
2019-02-23T22:30:16.031Z,100524.14
2019-02-23T22:32:48.818Z,100532.27
2019-02-23T22:35:22.000Z,100530.61
2019-02-23T22:37:53.103Z,100528.27
2019-02-23T22:40:26.294Z,100529.24
2019-02-23T22:42:59.035Z,100536.70
2019-02-23T22:45:32.334Z,100533.73
2019-02-23T22:48:05.724Z,100534.18
2019-02-23T22:50:39.857Z,100532.55
2019-02-23T22:53:12.632Z,100526.58
2019-02-23T22:55:46.724Z,100523.86
2019-02-23T22:58:20.789Z,100529.49
2019-02-23T23:00:55.457Z,100522.17
2019-02-23T23:03:57.625Z,100527.56
2019-02-23T23:06:31.606Z,100529.30
2019-02-23T23:09:05.689Z,100526.70
2019-02-23T23:11:38.871Z,100524.42
2019-02-23T23:14:11.871Z,100522.30
2019-02-23T23:16:45.040Z,100522.34
2019-02-23T23:19:17.788Z,100525.37
2019-02-23T23:21:50.598Z,100519.69
2019-02-23T23:24:22.992Z,100522.25
2019-02-23T23:26:57.861Z,100524.89
2019-02-23T23:29:30.692Z,100523.12
2019-02-23T23:32:03.049Z,100528.00
2019-02-23T23:34:35.735Z,100523.28
2019-02-23T23:37:09.350Z,100532.02
2019-02-23T23:39:42.245Z,100535.09
2019-02-23T23:42:17.486Z,100529.45
2019-02-23T23:44:51.844Z,100526.08
2019-02-23T23:47:24.919Z,100526.30
2019-02-23T23:49:56.755Z,100526.59
2019-02-23T23:52:31.064Z,100523.23
2019-02-23T23:55:03.872Z,100527.63
2019-02-23T23:57:40.094Z,100525.48
